Time;durP1;ratioP1;P1;durP2;ratioP2;P2;SDS_P1;SDS_P2;PMS_P1;PMS_P2;Temp;Humidity;BMP_temperature;BMP_pressure;BME280_temperature;BME280_humidity;BME280_pressure;Samples;Min_cycle;Max_cycle;Signal;HPM_P1;HPM_P2
2022/01/16 00:04:05;;;;;;;28.57;15.23;;;;;;;;;;5016636;28;20940;-61
2022/01/16 00:04:38;;;;;;;29.60;15.30;;;;;;;;;;5016011;28;20443;-60
2022/01/16 00:07:05;;;;;;;34.60;15.60;;;;;;;;;;5016708;28;20474;-59
2022/01/16 00:09:32;;;;;;;33.23;15.77;;;;;;;;;;5017313;28;20407;-61
2022/01/16 00:12:00;;;;;;;27.67;14.17;;;;;;;;;;5016501;28;20494;-61
2022/01/16 00:14:26;;;;;;;27.80;14.30;;;;;;;;;;5016506;28;20830;-60
2022/01/16 00:16:53;;;;;;;30.50;14.97;;;;;;;;;;5016257;28;20420;-62
2022/01/16 00:19:19;;;;;;;34.20;17.43;;;;;;;;;;5014955;28;20423;-62
2022/01/16 00:21:45;;;;;;;26.80;14.80;;;;;;;;;;5016180;28;20451;-61
2022/01/16 00:24:11;;;;;;;27.40;15.30;;;;;;;;;;5016088;28;20438;-62
2022/01/16 00:26:37;;;;;;;29.93;15.00;;;;;;;;;;5016116;28;20873;-61
2022/01/16 00:29:07;;;;;;;26.63;15.30;;;;;;;;;;5016149;28;20407;-59
2022/01/16 00:31:33;;;;;;;20.40;12.40;;;;;;;;;;5016285;28;20910;-62
2022/01/16 00:33:59;;;;;;;27.73;14.87;;;;;;;;;;5015815;28;20415;-62
2022/01/16 00:36:25;;;;;;;27.87;14.97;;;;;;;;;;5016277;28;20773;-62
2022/01/16 00:38:53;;;;;;;28.53;15.40;;;;;;;;;;5016034;28;20482;-62
2022/01/16 00:41:20;;;;;;;23.23;14.23;;;;;;;;;;5016244;28;20423;-61
2022/01/16 00:43:47;;;;;;;29.80;14.60;;;;;;;;;;5015647;28;20952;-61
2022/01/16 00:46:13;;;;;;;37.93;17.47;;;;;;;;;;5015869;28;20836;-61
2022/01/16 00:48:39;;;;;;;28.73;15.43;;;;;;;;;;5015779;28;20733;-62
2022/01/16 00:51:05;;;;;;;30.30;15.17;;;;;;;;;;5016007;28;20400;-60
2022/01/16 00:53:31;;;;;;;29.67;16.10;;;;;;;;;;5015279;28;20438;-62
2022/01/16 00:55:57;;;;;;;26.03;14.53;;;;;;;;;;5015304;28;20455;-62
2022/01/16 00:58:23;;;;;;;27.93;17.37;;;;;;;;;;5015724;28;20773;-60
2022/01/16 01:00:49;;;;;;;28.37;14.67;;;;;;;;;;5015547;28;20408;-62
2022/01/16 01:03:16;;;;;;;25.77;14.20;;;;;;;;;;5015414;28;20443;-61
2022/01/16 01:05:42;;;;;;;28.03;15.00;;;;;;;;;;5015404;28;20787;-61
2022/01/16 01:08:08;;;;;;;33.80;16.83;;;;;;;;;;5015891;28;20400;-60
2022/01/16 01:10:37;;;;;;;31.17;15.00;;;;;;;;;;5015355;28;20416;-60
2022/01/16 01:13:13;;;;;;;30.27;15.73;;;;;;;;;;5015128;28;20408;-61
2022/01/16 01:15:46;;;;;;;28.83;14.73;;;;;;;;;;5015276;28;20423;-60
2022/01/16 01:18:12;;;;;;;27.50;14.20;;;;;;;;;;5014937;28;20403;-61
2022/01/16 01:20:40;;;;;;;25.43;14.23;;;;;;;;;;5014861;28;20404;-60
2022/01/16 01:23:07;;;;;;;31.20;17.27;;;;;;;;;;5014815;28;20455;-62
2022/01/16 01:25:33;;;;;;;30.10;15.30;;;;;;;;;;5014793;28;20812;-62
2022/01/16 01:27:59;;;;;;;33.50;16.00;;;;;;;;;;5014789;28;20388;-61
2022/01/16 01:30:25;;;;;;;26.77;14.50;;;;;;;;;;5014500;28;20435;-61
2022/01/16 01:32:54;;;;;;;25.10;13.40;;;;;;;;;;5013492;28;20783;-62
2022/01/16 01:35:20;;;;;;;26.50;13.47;;;;;;;;;;5014555;28;20437;-62
2022/01/16 01:37:47;;;;;;;26.50;15.00;;;;;;;;;;5014496;28;20404;-62
2022/01/16 01:40:15;;;;;;;24.70;14.50;;;;;;;;;;5014445;28;20414;-62
2022/01/16 01:42:49;;;;;;;22.37;14.83;;;;;;;;;;5014311;28;20498;-62
2022/01/16 01:51:06;;;;;;;28.07;15.67;;;;;;;;;;5014305;28;20388;-62
2022/01/16 01:53:33;;;;;;;24.83;13.53;;;;;;;;;;5014446;28;20427;-62
2022/01/16 01:55:59;;;;;;;27.30;15.50;;;;;;;;;;5014142;28;20422;-62
2022/01/16 01:58:26;;;;;;;23.93;13.23;;;;;;;;;;5013934;28;20456;-62
2022/01/16 02:00:52;;;;;;;31.27;14.07;;;;;;;;;;5014140;28;20396;-62
2022/01/16 02:03:42;;;;;;;26.40;14.20;;;;;;;;;;5014508;28;20826;-62
2022/01/16 02:06:16;;;;;;;26.50;14.77;;;;;;;;;;5014078;28;20423;-62
2022/01/16 02:08:43;;;;;;;27.53;13.40;;;;;;;;;;5014303;28;20408;-62
2022/01/16 02:11:11;;;;;;;27.77;14.77;;;;;;;;;;5014049;28;20407;-61
2022/01/16 02:13:47;;;;;;;29.80;14.83;;;;;;;;;;5013964;28;20427;-62
2022/01/16 02:33:11;;;;;;;26.33;13.60;;;;;;;;;;5013887;28;20441;-59
2022/01/16 02:35:34;;;;;;;26.57;14.90;;;;;;;;;;5013450;28;20432;-62
2022/01/16 02:38:00;;;;;;;21.73;12.97;;;;;;;;;;5013680;28;20411;-61
2022/01/16 02:40:28;;;;;;;25.30;13.40;;;;;;;;;;5013890;28;20400;-62
2022/01/16 02:42:54;;;;;;;29.17;14.97;;;;;;;;;;5013374;28;20451;-61
2022/01/16 02:45:29;;;;;;;25.93;14.20;;;;;;;;;;5004224;28;20443;-61
2022/01/16 02:47:56;;;;;;;28.10;14.50;;;;;;;;;;5013068;28;20884;-62
2022/01/16 02:50:23;;;;;;;27.73;14.33;;;;;;;;;;5013555;28;20407;-62
2022/01/16 02:52:50;;;;;;;25.90;15.20;;;;;;;;;;5013452;28;20904;-62
2022/01/16 02:55:16;;;;;;;31.30;16.13;;;;;;;;;;5013489;28;20885;-61
2022/01/16 02:57:42;;;;;;;22.33;12.57;;;;;;;;;;5013527;28;20423;-61
2022/01/16 03:00:09;;;;;;;25.70;14.83;;;;;;;;;;5013525;28;20553;-61
2022/01/16 03:02:35;;;;;;;35.93;14.73;;;;;;;;;;5013495;28;20462;-62
2022/01/16 03:05:01;;;;;;;28.20;14.87;;;;;;;;;;5013653;28;20410;-61
2022/01/16 03:07:27;;;;;;;30.63;15.83;;;;;;;;;;5013393;28;20415;-60
2022/01/16 03:12:45;;;;;;;24.00;12.37;;;;;;;;;;5013680;28;20399;-61
2022/01/16 03:15:11;;;;;;;29.83;15.30;;;;;;;;;;5013234;28;20404;-61
2022/01/16 03:23:03;;;;;;;27.60;16.07;;;;;;;;;;5013195;28;20451;-61
2022/01/16 03:25:29;;;;;;;30.53;14.90;;;;;;;;;;5013124;28;20868;-60
2022/01/16 03:27:55;;;;;;;27.10;15.00;;;;;;;;;;5013369;28;20758;-61
2022/01/16 03:30:21;;;;;;;26.50;14.80;;;;;;;;;;5013050;28;20410;-61
2022/01/16 03:32:47;;;;;;;30.17;14.93;;;;;;;;;;5013267;28;20461;-62
2022/01/16 03:35:13;;;;;;;29.27;15.60;;;;;;;;;;5013135;28;20772;-62
2022/01/16 03:37:40;;;;;;;28.47;15.30;;;;;;;;;;5013193;28;20415;-61
2022/01/16 03:40:10;;;;;;;31.37;16.10;;;;;;;;;;5013256;28;20775;-61
2022/01/16 03:42:37;;;;;;;30.73;17.17;;;;;;;;;;5013358;28;20453;-61
2022/01/16 03:45:04;;;;;;;30.50;14.30;;;;;;;;;;5013077;28;20987;-60
2022/01/16 03:47:30;;;;;;;33.80;14.90;;;;;;;;;;5012843;28;20423;-61
2022/01/16 03:49:56;;;;;;;27.03;15.43;;;;;;;;;;5012857;28;20407;-61
2022/01/16 03:52:22;;;;;;;30.20;14.80;;;;;;;;;;5013118;28;20407;-61
2022/01/16 03:54:48;;;;;;;27.43;16.30;;;;;;;;;;5013124;28;20411;-61
2022/01/16 03:57:14;;;;;;;29.77;15.83;;;;;;;;;;5016460;28;20419;-61
2022/01/16 03:59:40;;;;;;;29.60;14.27;;;;;;;;;;5016436;28;20506;-61
2022/01/16 04:02:06;;;;;;;27.97;16.00;;;;;;;;;;5016496;28;20459;-61
2022/01/16 04:04:33;;;;;;;27.47;15.87;;;;;;;;;;5016223;28;20403;-61
2022/01/16 04:06:59;;;;;;;25.60;14.60;;;;;;;;;;5016584;28;20900;-60
2022/01/16 04:09:26;;;;;;;33.43;17.77;;;;;;;;;;5016594;28;20413;-61
2022/01/16 04:11:55;;;;;;;30.70;17.30;;;;;;;;;;5016815;28;20438;-61
2022/01/16 04:15:31;;;;;;;30.57;17.23;;;;;;;;;;5016560;28;20414;-61
2022/01/16 04:17:08;;;;;;;29.47;16.13;;;;;;;;;;5011313;28;20482;-61
2022/01/16 04:19:35;;;;;;;41.23;17.70;;;;;;;;;;5007217;28;20927;-61
2022/01/16 04:22:01;;;;;;;30.17;17.80;;;;;;;;;;4997543;28;20555;-61
2022/01/16 04:24:27;;;;;;;32.13;16.63;;;;;;;;;;5011616;28;20442;-60
2022/01/16 04:26:53;;;;;;;27.57;14.77;;;;;;;;;;5015688;28;20932;-61
2022/01/16 04:29:19;;;;;;;29.70;15.27;;;;;;;;;;5015921;28;20506;-60
2022/01/16 04:31:45;;;;;;;29.37;15.57;;;;;;;;;;5015856;28;20406;-61
2022/01/16 04:34:11;;;;;;;27.17;14.70;;;;;;;;;;5015994;28;20482;-60
2022/01/16 04:36:37;;;;;;;27.33;15.90;;;;;;;;;;5015597;28;20430;-60
2022/01/16 04:39:12;;;;;;;40.43;17.80;;;;;;;;;;5015521;28;20406;-61
2022/01/16 04:44:22;;;;;;;26.37;15.23;;;;;;;;;;5016087;28;20403;-60
2022/01/16 04:46:48;;;;;;;27.50;15.70;;;;;;;;;;5015950;28;20451;-60
2022/01/16 04:49:14;;;;;;;24.33;13.93;;;;;;;;;;5015545;28;20483;-59
2022/01/16 04:51:40;;;;;;;26.83;15.60;;;;;;;;;;5015614;28;20876;-60
2022/01/16 04:54:08;;;;;;;29.27;15.67;;;;;;;;;;5015725;28;20396;-59
2022/01/16 04:56:34;;;;;;;22.67;12.43;;;;;;;;;;4999934;28;20865;-60
2022/01/16 04:59:00;;;;;;;28.17;14.73;;;;;;;;;;4995731;28;20893;-60
2022/01/16 05:01:26;;;;;;;22.27;13.60;;;;;;;;;;5001505;28;20424;-61
2022/01/16 05:03:52;;;;;;;20.73;13.23;;;;;;;;;;4995636;28;20447;-60
2022/01/16 05:06:18;;;;;;;26.77;15.20;;;;;;;;;;4995494;28;20707;-60
2022/01/16 05:08:44;;;;;;;24.37;14.10;;;;;;;;;;4995574;28;20747;-58
2022/01/16 05:11:12;;;;;;;27.03;14.23;;;;;;;;;;4995661;28;20401;-57
2022/01/16 05:18:50;;;;;;;26.70;17.07;;;;;;;;;;4995717;28;20383;-61
2022/01/16 05:21:16;;;;;;;31.60;18.03;;;;;;;;;;4995714;28;20408;-61
2022/01/16 05:23:42;;;;;;;27.40;16.10;;;;;;;;;;4995247;28;20455;-61
2022/01/16 05:26:09;;;;;;;29.30;16.93;;;;;;;;;;5005203;28;20525;-61
2022/01/16 05:28:35;;;;;;;30.80;18.40;;;;;;;;;;5015032;28;20824;-61
2022/01/16 05:31:01;;;;;;;24.37;15.80;;;;;;;;;;5014963;28;20430;-61
2022/01/16 05:33:28;;;;;;;33.93;19.57;;;;;;;;;;5014754;28;20404;-61
2022/01/16 05:35:54;;;;;;;29.80;19.50;;;;;;;;;;5014571;28;20432;-60
2022/01/16 05:38:20;;;;;;;28.50;17.27;;;;;;;;;;5014702;28;20408;-61
2022/01/16 05:40:46;;;;;;;28.87;17.30;;;;;;;;;;5014902;28;20411;-60
2022/01/16 05:43:12;;;;;;;29.70;20.07;;;;;;;;;;5014724;28;20450;-61
2022/01/16 05:45:38;;;;;;;27.27;16.63;;;;;;;;;;5014958;28;20419;-57
2022/01/16 05:48:04;;;;;;;30.17;18.03;;;;;;;;;;5014865;28;20449;-56
2022/01/16 05:50:34;;;;;;;27.47;17.00;;;;;;;;;;5014425;28;20399;-61
2022/01/16 05:53:00;;;;;;;28.73;18.67;;;;;;;;;;5014702;28;20972;-61
2022/01/16 05:55:29;;;;;;;26.77;17.77;;;;;;;;;;5014833;28;20417;-61
2022/01/16 05:57:55;;;;;;;26.37;18.43;;;;;;;;;;5013271;28;20410;-61
2022/01/16 06:00:21;;;;;;;31.00;19.60;;;;;;;;;;5013070;28;20415;-61
2022/01/16 06:02:47;;;;;;;27.43;17.93;;;;;;;;;;5014262;28;20451;-61
2022/01/16 06:05:16;;;;;;;26.13;18.53;;;;;;;;;;5014074;28;20442;-61
2022/01/16 06:07:45;;;;;;;30.07;19.87;;;;;;;;;;5014444;28;20487;-61
2022/01/16 06:10:12;;;;;;;29.17;19.03;;;;;;;;;;5014167;28;20442;-61
2022/01/16 06:12:38;;;;;;;29.90;19.83;;;;;;;;;;5014272;28;20399;-61
2022/01/16 06:15:05;;;;;;;26.00;17.80;;;;;;;;;;5014068;28;20395;-61
2022/01/16 06:17:31;;;;;;;33.00;19.37;;;;;;;;;;5013888;28;20482;-60
2022/01/16 06:19:57;;;;;;;29.63;19.70;;;;;;;;;;5013937;28;20769;-60
2022/01/16 06:22:23;;;;;;;29.13;18.50;;;;;;;;;;5013967;28;20479;-61
2022/01/16 06:24:49;;;;;;;28.00;18.53;;;;;;;;;;5014237;28;20422;-60
2022/01/16 06:27:15;;;;;;;35.73;21.90;;;;;;;;;;5013729;28;20936;-61
2022/01/16 06:29:41;;;;;;;28.93;19.10;;;;;;;;;;5014180;28;20745;-61
2022/01/16 06:32:07;;;;;;;30.27;20.43;;;;;;;;;;5013731;28;20495;-61
2022/01/16 06:34:33;;;;;;;34.10;21.47;;;;;;;;;;5013797;28;20487;-59
2022/01/16 06:36:59;;;;;;;33.00;20.27;;;;;;;;;;5013715;28;20422;-61
2022/01/16 06:39:25;;;;;;;37.33;20.30;;;;;;;;;;5013711;28;20546;-61
2022/01/16 06:41:52;;;;;;;33.50;20.43;;;;;;;;;;5013944;28;20541;-61
2022/01/16 06:44:18;;;;;;;36.43;21.67;;;;;;;;;;5013987;28;20398;-59
2022/01/16 06:46:44;;;;;;;29.53;20.90;;;;;;;;;;5013813;28;20428;-61
2022/01/16 06:49:10;;;;;;;28.60;19.53;;;;;;;;;;5013652;28;20759;-60
2022/01/16 06:51:37;;;;;;;29.90;19.57;;;;;;;;;;5013624;28;20450;-60
2022/01/16 06:54:03;;;;;;;30.63;20.80;;;;;;;;;;5013704;28;20495;-60
2022/01/16 06:56:30;;;;;;;25.77;19.33;;;;;;;;;;5013583;28;20436;-60
2022/01/16 06:58:56;;;;;;;30.20;20.73;;;;;;;;;;5013729;28;20819;-60
2022/01/16 07:01:22;;;;;;;31.63;20.40;;;;;;;;;;5013513;28;20404;-60
2022/01/16 07:03:51;;;;;;;32.67;20.30;;;;;;;;;;5013522;28;20455;-60
2022/01/16 07:06:17;;;;;;;33.87;20.97;;;;;;;;;;5013404;28;20469;-60
2022/01/16 07:08:43;;;;;;;33.43;21.70;;;;;;;;;;5013498;28;20467;-60
2022/01/16 07:11:09;;;;;;;30.33;21.47;;;;;;;;;;5013292;28;20399;-61
2022/01/16 07:13:35;;;;;;;33.77;23.13;;;;;;;;;;5013338;28;20404;-58
2022/01/16 07:16:01;;;;;;;36.30;24.13;;;;;;;;;;5013301;28;20932;-60
2022/01/16 07:18:28;;;;;;;34.60;22.37;;;;;;;;;;5013235;28;20793;-61
2022/01/16 07:20:54;;;;;;;32.00;22.63;;;;;;;;;;5013462;28;20523;-60
2022/01/16 07:23:20;;;;;;;38.57;23.97;;;;;;;;;;5013192;28;20462;-61
2022/01/16 07:25:46;;;;;;;37.87;22.60;;;;;;;;;;5013220;28;20443;-61
2022/01/16 07:28:12;;;;;;;33.23;21.13;;;;;;;;;;5013239;28;20475;-61
2022/01/16 07:30:38;;;;;;;33.80;21.30;;;;;;;;;;5014211;28;20406;-60
2022/01/16 07:33:04;;;;;;;35.33;21.53;;;;;;;;;;5017099;28;20477;-60
2022/01/16 07:35:31;;;;;;;30.53;20.00;;;;;;;;;;5016929;28;20484;-61
2022/01/16 07:37:57;;;;;;;35.53;21.43;;;;;;;;;;5016912;28;20407;-61
2022/01/16 07:40:24;;;;;;;34.70;20.83;;;;;;;;;;5017002;28;20474;-61
2022/01/16 07:42:50;;;;;;;31.87;20.67;;;;;;;;;;5016750;28;20481;-59
2022/01/16 07:45:16;;;;;;;29.57;18.90;;;;;;;;;;5016700;28;20473;-61
2022/01/16 07:47:43;;;;;;;27.30;18.57;;;;;;;;;;5016975;28;20407;-60
2022/01/16 07:50:09;;;;;;;29.30;20.57;;;;;;;;;;5016982;28;20769;-59
2022/01/16 07:52:35;;;;;;;26.70;18.33;;;;;;;;;;5016391;28;20427;-61
2022/01/16 07:55:01;;;;;;;27.47;19.83;;;;;;;;;;5016421;28;20407;-61
2022/01/16 07:57:28;;;;;;;23.13;18.77;;;;;;;;;;5016454;28;20514;-60
2022/01/16 07:59:54;;;;;;;30.37;17.90;;;;;;;;;;5016405;28;20494;-61
2022/01/16 08:02:20;;;;;;;31.07;19.53;;;;;;;;;;5016375;28;20666;-60
2022/01/16 08:04:46;;;;;;;28.10;19.13;;;;;;;;;;5016321;28;20407;-61
2022/01/16 08:07:12;;;;;;;28.93;18.93;;;;;;;;;;5016321;28;20419;-61
2022/01/16 08:09:39;;;;;;;29.07;18.70;;;;;;;;;;5016219;28;20404;-61
2022/01/16 08:12:05;;;;;;;26.90;18.57;;;;;;;;;;5016272;28;20412;-61
2022/01/16 08:14:31;;;;;;;28.40;19.50;;;;;;;;;;5016127;28;20501;-61
2022/01/16 08:16:57;;;;;;;25.70;17.53;;;;;;;;;;5015882;28;20423;-61
2022/01/16 08:19:24;;;;;;;26.67;18.30;;;;;;;;;;5016087;28;20407;-61
2022/01/16 08:21:50;;;;;;;28.60;19.47;;;;;;;;;;5016092;28;20408;-60
2022/01/16 08:24:16;;;;;;;31.93;18.43;;;;;;;;;;5015889;28;20412;-60
2022/01/16 08:26:42;;;;;;;28.73;19.00;;;;;;;;;;5015853;28;20446;-60
2022/01/16 08:29:08;;;;;;;25.97;18.37;;;;;;;;;;5016085;28;20419;-60
2022/01/16 08:31:34;;;;;;;28.20;20.47;;;;;;;;;;5016734;28;20412;-59
2022/01/16 08:34:00;;;;;;;29.33;17.80;;;;;;;;;;5016339;28;20414;-61
2022/01/16 08:36:26;;;;;;;29.97;18.20;;;;;;;;;;5016161;28;20510;-60
2022/01/16 08:38:54;;;;;;;27.17;15.50;;;;;;;;;;5015668;28;20419;-61
2022/01/16 08:41:20;;;;;;;26.93;17.30;;;;;;;;;;5013550;28;20889;-66
2022/01/16 08:43:46;;;;;;;22.60;15.43;;;;;;;;;;5006039;28;20452;-61
2022/01/16 08:46:13;;;;;;;22.90;14.53;;;;;;;;;;5015194;28;20527;-59
2022/01/16 08:48:39;;;;;;;20.90;13.17;;;;;;;;;;5015054;28;20478;-61
2022/01/16 08:51:05;;;;;;;24.43;14.33;;;;;;;;;;5015758;28;20885;-62
2022/01/16 08:53:32;;;;;;;20.57;14.27;;;;;;;;;;5015109;28;20806;-57
2022/01/16 08:55:58;;;;;;;26.07;16.00;;;;;;;;;;5013570;28;20448;-61
2022/01/16 08:58:25;;;;;;;24.93;16.77;;;;;;;;;;5014533;28;20435;-63
2022/01/16 09:00:51;;;;;;;24.53;14.70;;;;;;;;;;5015450;28;20416;-59
2022/01/16 09:03:18;;;;;;;18.50;14.20;;;;;;;;;;5015546;28;20521;-59
2022/01/16 09:05:45;;;;;;;22.60;14.00;;;;;;;;;;4996226;28;20432;-56
2022/01/16 09:08:11;;;;;;;20.53;14.97;;;;;;;;;;4999704;28;20493;-53
2022/01/16 09:10:37;;;;;;;22.07;14.47;;;;;;;;;;5015543;28;20415;-57
2022/01/16 09:13:04;;;;;;;19.77;14.27;;;;;;;;;;5015219;28;20414;-59
2022/01/16 09:15:31;;;;;;;20.63;14.15;;;;;;;;;;5015629;28;20900;-61
2022/01/16 09:17:57;;;;;;;20.10;12.40;;;;;;;;;;5023210;28;20176;-61
2022/01/16 09:20:23;;;;;;;20.60;12.97;;;;;;;;;;5024875;28;20431;-61
2022/01/16 09:22:49;;;;;;;21.70;14.50;;;;;;;;;;5014703;28;20466;-61
2022/01/16 09:25:17;;;;;;;21.10;13.60;;;;;;;;;;5017825;28;20412;-63
2022/01/16 09:27:43;;;;;;;21.93;14.30;;;;;;;;;;5015952;28;20459;-65
2022/01/16 09:30:10;;;;;;;19.97;14.00;;;;;;;;;;5014908;28;20470;-64
2022/01/16 09:32:36;;;;;;;22.83;14.13;;;;;;;;;;5014264;28;20419;-64
2022/01/16 09:35:03;;;;;;;22.90;14.40;;;;;;;;;;5014142;28;20416;-62
2022/01/16 09:37:29;;;;;;;23.50;13.53;;;;;;;;;;5008832;28;20474;-66
2022/01/16 09:39:58;;;;;;;27.23;13.70;;;;;;;;;;5014413;28;20395;-64
2022/01/16 09:42:24;;;;;;;22.13;12.60;;;;;;;;;;5013558;28;20546;-63
2022/01/16 09:44:50;;;;;;;20.43;13.07;;;;;;;;;;5014422;28;20415;-63
2022/01/16 09:47:16;;;;;;;16.40;11.70;;;;;;;;;;5014188;28;20462;-63
2022/01/16 09:49:44;;;;;;;20.07;14.10;;;;;;;;;;5013949;28;20888;-62
2022/01/16 09:52:10;;;;;;;18.23;12.87;;;;;;;;;;5014287;28;20411;-62
2022/01/16 09:54:37;;;;;;;22.00;13.50;;;;;;;;;;5013548;28;20485;-62
2022/01/16 09:57:03;;;;;;;19.80;12.80;;;;;;;;;;5014244;28;20432;-62
2022/01/16 09:59:29;;;;;;;20.30;13.40;;;;;;;;;;5014322;28;20854;-62
2022/01/16 10:01:55;;;;;;;14.80;11.07;;;;;;;;;;5014296;28;20407;-60
2022/01/16 10:04:37;;;;;;;19.20;11.57;;;;;;;;;;5014105;28;20412;-62
2022/01/16 10:07:08;;;;;;;20.10;12.30;;;;;;;;;;5013850;28;20423;-63
2022/01/16 10:09:35;;;;;;;21.60;12.80;;;;;;;;;;5014160;28;20881;-61
2022/01/16 10:12:02;;;;;;;19.67;11.80;;;;;;;;;;5014221;28;20403;-61
2022/01/16 10:14:34;;;;;;;18.30;12.83;;;;;;;;;;5014222;28;20411;-61
2022/01/16 10:17:09;;;;;;;22.50;13.67;;;;;;;;;;5014121;28;20851;-61
2022/01/16 10:19:35;;;;;;;21.03;14.07;;;;;;;;;;5013904;28;20757;-62
2022/01/16 10:22:05;;;;;;;18.10;12.33;;;;;;;;;;5013636;28;20399;-62
2022/01/16 10:24:34;;;;;;;17.77;12.13;;;;;;;;;;5013916;28;20417;-61
2022/01/16 10:27:09;;;;;;;20.27;12.47;;;;;;;;;;5013483;28;20431;-62
2022/01/16 10:29:45;;;;;;;19.20;11.97;;;;;;;;;;5013599;28;20904;-61
2022/01/16 10:32:13;;;;;;;19.37;13.23;;;;;;;;;;5013614;28;20422;-61
2022/01/16 10:34:40;;;;;;;18.60;12.67;;;;;;;;;;5013889;28;20506;-62
2022/01/16 10:37:20;;;;;;;16.40;11.30;;;;;;;;;;5013446;28;20427;-62
2022/01/16 10:40:14;;;;;;;18.80;11.60;;;;;;;;;;5013558;28;20815;-63
2022/01/16 10:42:40;;;;;;;18.17;10.97;;;;;;;;;;5012045;28;20551;-62
2022/01/16 10:45:08;;;;;;;18.23;11.63;;;;;;;;;;5013321;28;20466;-62
2022/01/16 10:47:39;;;;;;;16.03;10.93;;;;;;;;;;5013492;28;20963;-62
2022/01/16 10:50:18;;;;;;;20.93;12.97;;;;;;;;;;5013798;28;20396;-63
2022/01/16 10:52:48;;;;;;;18.50;12.30;;;;;;;;;;5013399;28;20495;-62
2022/01/16 10:55:14;;;;;;;18.57;12.17;;;;;;;;;;5013281;28;20438;-62
2022/01/16 10:57:41;;;;;;;22.80;13.87;;;;;;;;;;5013312;28;20769;-62
2022/01/16 11:00:17;;;;;;;20.83;11.80;;;;;;;;;;5013625;28;20771;-62
2022/01/16 11:02:43;;;;;;;17.97;11.93;;;;;;;;;;5013094;28;20454;-63
2022/01/16 11:05:14;;;;;;;18.20;12.13;;;;;;;;;;5016622;28;20416;-62
2022/01/16 11:07:40;;;;;;;16.73;12.10;;;;;;;;;;5019657;28;20399;-62
2022/01/16 11:10:26;;;;;;;16.67;11.43;;;;;;;;;;5019756;28;20482;-62
2022/01/16 11:12:53;;;;;;;17.73;11.93;;;;;;;;;;5019619;28;20443;-61
2022/01/16 11:15:20;;;;;;;18.87;12.80;;;;;;;;;;5019795;28;20876;-62
2022/01/16 11:17:46;;;;;;;15.30;11.60;;;;;;;;;;5020003;28;20771;-59
2022/01/16 11:20:12;;;;;;;21.53;12.73;;;;;;;;;;5020094;28;20765;-63
2022/01/16 11:22:57;;;;;;;16.20;11.23;;;;;;;;;;5019523;28;20479;-64
2022/01/16 11:25:31;;;;;;;16.87;11.70;;;;;;;;;;5017734;28;20908;-64
2022/01/16 11:28:01;;;;;;;18.70;11.50;;;;;;;;;;5011112;28;20411;-62
2022/01/16 11:30:31;;;;;;;17.67;11.70;;;;;;;;;;5019520;28;20486;-62
2022/01/16 11:32:58;;;;;;;17.50;12.13;;;;;;;;;;5019475;28;20411;-62
2022/01/16 11:35:24;;;;;;;21.57;12.43;;;;;;;;;;5019638;28;20411;-63
2022/01/16 11:37:51;;;;;;;20.77;13.07;;;;;;;;;;5019501;28;20407;-63
2022/01/16 11:40:20;;;;;;;17.80;11.90;;;;;;;;;;5019305;28;20487;-62
2022/01/16 11:43:06;;;;;;;19.67;12.13;;;;;;;;;;5019438;28;21032;-62
2022/01/16 11:45:32;;;;;;;15.87;10.87;;;;;;;;;;5019258;28;20481;-62
2022/01/16 11:47:58;;;;;;;17.77;11.60;;;;;;;;;;5019298;28;20414;-62
2022/01/16 11:50:33;;;;;;;15.53;10.90;;;;;;;;;;5019707;28;20735;-61
2022/01/16 11:52:59;;;;;;;18.47;12.53;;;;;;;;;;5019530;28;20399;-62
2022/01/16 11:55:33;;;;;;;18.23;11.73;;;;;;;;;;5019439;28;20498;-61
2022/01/16 11:58:00;;;;;;;16.67;12.07;;;;;;;;;;5019245;28;20384;-63
2022/01/16 12:00:41;;;;;;;16.63;11.50;;;;;;;;;;5019384;28;20411;-62
2022/01/16 12:03:27;;;;;;;18.70;12.13;;;;;;;;;;5019333;28;20439;-62
2022/01/16 12:05:56;;;;;;;18.10;12.03;;;;;;;;;;5019297;28;20923;-62
2022/01/16 12:08:34;;;;;;;20.33;11.73;;;;;;;;;;5019654;28;20406;-61
2022/01/16 12:11:00;;;;;;;16.70;11.43;;;;;;;;;;5019272;28;20879;-64
2022/01/16 12:13:48;;;;;;;18.30;13.50;;;;;;;;;;5019568;28;20403;-62
2022/01/16 12:16:33;;;;;;;18.00;11.30;;;;;;;;;;5017747;28;20432;-61
2022/01/16 12:19:17;;;;;;;15.90;10.70;;;;;;;;;;5016132;28;20408;-62
2022/01/16 12:21:52;;;;;;;15.60;10.57;;;;;;;;;;5015995;28;20407;-61
2022/01/16 12:24:34;;;;;;;15.13;11.80;;;;;;;;;;5015937;28;20415;-64
2022/01/16 12:27:23;;;;;;;17.20;11.03;;;;;;;;;;5016014;28;20842;-62
2022/01/16 12:30:23;;;;;;;16.83;10.17;;;;;;;;;;5008032;28;20951;-63
2022/01/16 12:32:53;;;;;;;15.27;10.80;;;;;;;;;;4983654;28;20421;-61
2022/01/16 12:35:38;;;;;;;19.50;12.60;;;;;;;;;;5015828;28;20396;-63
2022/01/16 12:38:08;;;;;;;15.70;10.83;;;;;;;;;;5015876;28;20783;-62
2022/01/16 12:40:34;;;;;;;16.53;11.50;;;;;;;;;;5015742;28;20406;-62
2022/01/16 12:43:01;;;;;;;17.63;11.63;;;;;;;;;;5015785;28;20443;-63
2022/01/16 12:45:29;;;;;;;16.17;11.67;;;;;;;;;;5014162;28;20944;-62
2022/01/16 12:47:55;;;;;;;17.20;10.80;;;;;;;;;;5015932;28;20400;-62
2022/01/16 12:50:21;;;;;;;27.37;13.07;;;;;;;;;;5015768;28;20403;-63
2022/01/16 12:52:48;;;;;;;17.70;11.97;;;;;;;;;;5015762;28;20415;-64
2022/01/16 12:55:14;;;;;;;18.67;10.73;;;;;;;;;;5015287;28;20408;-65
2022/01/16 12:57:41;;;;;;;15.97;10.80;;;;;;;;;;5015058;28;20408;-65
2022/01/16 13:00:13;;;;;;;15.10;9.60;;;;;;;;;;5015221;28;20407;-62
2022/01/16 13:02:39;;;;;;;13.90;9.23;;;;;;;;;;5015027;28;20964;-63
2022/01/16 13:05:05;;;;;;;18.40;11.50;;;;;;;;;;5015296;28;20407;-63
2022/01/16 13:07:32;;;;;;;16.10;11.97;;;;;;;;;;5015165;28;20486;-63
2022/01/16 13:09:59;;;;;;;17.87;10.80;;;;;;;;;;5015042;28;20408;-63
2022/01/16 13:12:25;;;;;;;17.73;11.73;;;;;;;;;;5015507;28;20964;-63
2022/01/16 13:14:52;;;;;;;16.00;11.00;;;;;;;;;;5014913;28;20400;-62
2022/01/16 13:17:18;;;;;;;20.30;10.70;;;;;;;;;;5014874;28;20455;-62
2022/01/16 13:19:53;;;;;;;14.40;11.23;;;;;;;;;;5014882;28;20399;-62
2022/01/16 13:22:26;;;;;;;19.50;12.10;;;;;;;;;;5014771;28;20833;-63
2022/01/16 13:25:01;;;;;;;13.73;9.33;;;;;;;;;;5015135;28;20411;-62
2022/01/16 13:27:32;;;;;;;15.30;10.33;;;;;;;;;;5014208;28;21178;-62
2022/01/16 13:30:01;;;;;;;16.97;10.60;;;;;;;;;;5014281;28;20799;-60
2022/01/16 13:32:28;;;;;;;18.07;11.70;;;;;;;;;;5014889;28;20407;-62
2022/01/16 13:34:55;;;;;;;14.20;9.40;;;;;;;;;;5014636;28;20911;-61
2022/01/16 13:37:25;;;;;;;14.40;11.03;;;;;;;;;;5014588;28;20424;-63
2022/01/16 13:40:02;;;;;;;15.47;10.37;;;;;;;;;;5014443;28;20396;-62
2022/01/16 13:43:22;;;;;;;17.97;11.63;;;;;;;;;;5015082;28;20454;-61
2022/01/16 13:45:38;;;;;;;13.80;9.47;;;;;;;;;;5006972;28;20511;-65
2022/01/16 13:48:04;;;;;;;15.23;10.73;;;;;;;;;;5014259;28;20411;-63
2022/01/16 13:50:32;;;;;;;14.80;10.10;;;;;;;;;;5014471;28;20404;-65
2022/01/16 13:53:02;;;;;;;13.73;9.53;;;;;;;;;;5014622;28;20490;-63
2022/01/16 13:55:30;;;;;;;16.40;10.37;;;;;;;;;;5029374;28;20412;-64
2022/01/16 13:57:56;;;;;;;14.73;10.40;;;;;;;;;;5014488;28;20427;-63
2022/01/16 14:00:30;;;;;;;14.33;9.43;;;;;;;;;;5014284;28;20400;-62
2022/01/16 14:03:10;;;;;;;19.53;10.10;;;;;;;;;;5014244;28;20447;-63
2022/01/16 14:05:40;;;;;;;12.50;10.00;;;;;;;;;;5014374;28;20420;-63
2022/01/16 14:08:21;;;;;;;15.70;9.97;;;;;;;;;;5014513;28;20849;-62
2022/01/16 14:10:48;;;;;;;17.87;12.03;;;;;;;;;;5014043;28;20399;-62
2022/01/16 14:13:14;;;;;;;15.50;10.93;;;;;;;;;;5012706;28;20411;-61
2022/01/16 14:15:40;;;;;;;16.00;10.23;;;;;;;;;;5014210;28;20419;-64
2022/01/16 14:18:14;;;;;;;15.83;10.07;;;;;;;;;;5014173;28;20411;-62
2022/01/16 14:20:49;;;;;;;14.90;10.10;;;;;;;;;;5013879;28;20408;-63
2022/01/16 14:23:15;;;;;;;18.80;11.10;;;;;;;;;;5014223;28;20493;-63
2022/01/16 14:25:42;;;;;;;16.80;11.37;;;;;;;;;;5013426;28;20442;-62
2022/01/16 14:28:08;;;;;;;14.83;10.33;;;;;;;;;;5014088;28;20408;-62
2022/01/16 14:30:34;;;;;;;19.23;12.30;;;;;;;;;;5013781;28;20391;-63
2022/01/16 14:33:00;;;;;;;16.90;11.70;;;;;;;;;;5013519;28;20396;-62
2022/01/16 14:35:26;;;;;;;18.07;11.47;;;;;;;;;;5013682;28;20978;-63
2022/01/16 14:37:52;;;;;;;19.80;11.30;;;;;;;;;;5013817;28;20400;-65
2022/01/16 14:40:18;;;;;;;17.33;10.23;;;;;;;;;;5013266;28;20412;-63
2022/01/16 14:42:46;;;;;;;15.93;10.93;;;;;;;;;;5013465;28;20919;-63
2022/01/16 14:45:13;;;;;;;17.50;9.53;;;;;;;;;;5013492;28;20395;-65
2022/01/16 14:47:39;;;;;;;16.17;10.53;;;;;;;;;;5013524;28;20530;-64
2022/01/16 14:50:06;;;;;;;15.60;11.13;;;;;;;;;;5013626;28;20404;-63
2022/01/16 14:52:32;;;;;;;14.20;10.83;;;;;;;;;;5013330;28;20399;-63
2022/01/16 14:54:59;;;;;;;16.47;10.93;;;;;;;;;;5013191;28;20749;-63
2022/01/16 14:57:25;;;;;;;20.03;11.87;;;;;;;;;;5013313;28;20486;-63
2022/01/16 14:59:54;;;;;;;15.60;11.07;;;;;;;;;;5013172;28;20908;-64
2022/01/16 15:02:20;;;;;;;15.67;11.37;;;;;;;;;;5013184;28;20855;-63